Aviation Digital Data Service (ADDS)

Output produced by METARs form (0810 UTC 07 February 2016)
found at http://aviationweather.gov/adds/metars/
 
KMPV 070535Z 0706/0806 22006KT P6SM BKN070 
     FM070900 24005KT P6SM SCT080 
     FM071600 25005KT P6SM OVC040